Time;durP1;ratioP1;P1;durP2;ratioP2;P2;SDS_P1;SDS_P2;PMS_P1;PMS_P2;Temp;Humidity;BMP_temperature;BMP_pressure;BME280_temperature;BME280_humidity;BME280_pressure;Samples;Min_cycle;Max_cycle;Signal;HPM_P1;HPM_P2
2022/03/25 00:03:01;;;;;;;;;;;;;;;22.41;23.91;96457.41;10429876;28;1835;-42
2022/03/25 00:08:02;;;;;;;;;;;;;;;22.41;24.22;96468.00;10434785;28;1646;-42
2022/03/25 00:13:02;;;;;;;;;;;;;;;22.41;24.21;96458.22;10440537;28;1981;-43
2022/03/25 00:18:02;;;;;;;;;;;;;;;22.42;23.81;96454.50;10422772;28;1776;-42
2022/03/25 00:23:03;;;;;;;;;;;;;;;22.41;24.17;96455.56;10428541;28;1912;-40
2022/03/25 00:28:04;;;;;;;;;;;;;;;22.42;24.29;96446.56;10418182;28;2191;-41
2022/03/25 00:33:04;;;;;;;;;;;;;;;22.42;24.01;96451.84;10414543;28;1969;-41
2022/03/25 00:38:05;;;;;;;;;;;;;;;22.43;24.08;96447.38;10441879;28;2002;-41
2022/03/25 00:43:06;;;;;;;;;;;;;;;22.42;24.26;96441.28;10439761;28;1831;-41
2022/03/25 00:48:07;;;;;;;;;;;;;;;22.43;24.32;96434.97;10420833;28;1852;-41
2022/03/25 00:53:08;;;;;;;;;;;;;;;22.46;24.18;96441.56;10443242;28;1923;-42
2022/03/25 00:58:08;;;;;;;;;;;;;;;22.42;24.34;96445.81;10432106;28;1842;-43
2022/03/25 01:03:08;;;;;;;;;;;;;;;22.43;24.43;96437.59;10422578;28;1781;-41
2022/03/25 01:08:09;;;;;;;;;;;;;;;22.43;24.27;96434.97;10420094;28;2032;-40
2022/03/25 01:13:10;;;;;;;;;;;;;;;22.44;24.19;96433.13;10436880;28;1973;-40
2022/03/25 01:18:11;;;;;;;;;;;;;;;22.47;24.06;96437.84;10430490;28;1934;-51
2022/03/25 01:23:12;;;;;;;;;;;;;;;22.40;24.21;96430.22;10433240;28;2105;-42
2022/03/25 01:28:13;;;;;;;;;;;;;;;22.37;24.25;96433.41;10423929;28;2320;-43
2022/03/25 01:33:14;;;;;;;;;;;;;;;22.39;23.84;96419.91;10432075;28;2028;-41
2022/03/25 01:38:14;;;;;;;;;;;;;;;22.36;24.10;96428.38;10409416;28;1785;-43
2022/03/25 01:43:14;;;;;;;;;;;;;;;22.33;24.15;96426.28;10410899;28;2019;-42
2022/03/25 01:48:16;;;;;;;;;;;;;;;22.29;24.46;96428.66;10413861;28;2065;-40
2022/03/25 01:53:20;;;;;;;;;;;;;;;22.30;24.03;96432.88;10416392;28;1918;-43
2022/03/25 01:58:21;;;;;;;;;;;;;;;22.29;24.23;96427.88;10405083;28;1795;-42
2022/03/25 02:03:21;;;;;;;;;;;;;;;22.27;24.33;96417.59;10431957;28;1777;-47
2022/03/25 02:08:21;;;;;;;;;;;;;;;22.25;24.40;96417.06;10430037;28;1937;-45
2022/03/25 02:13:22;;;;;;;;;;;;;;;22.26;24.10;96417.81;10426835;28;1918;-46
2022/03/25 02:18:24;;;;;;;;;;;;;;;22.26;24.19;96423.91;10431477;28;1981;-45
2022/03/25 02:23:25;;;;;;;;;;;;;;;22.25;24.29;96424.97;10433831;28;1955;-46
2022/03/25 02:28:26;;;;;;;;;;;;;;;22.25;24.11;96424.97;10415805;28;1978;-48
2022/03/25 02:33:27;;;;;;;;;;;;;;;22.25;24.32;96429.47;10408827;28;1965;-41
2022/03/25 02:38:28;;;;;;;;;;;;;;;22.25;24.27;96424.19;10410326;28;1824;-43
2022/03/25 02:43:28;;;;;;;;;;;;;;;22.25;24.28;96426.81;10410717;28;2033;-47
2022/03/25 02:48:28;;;;;;;;;;;;;;;22.25;24.22;96422.34;10406343;28;1839;-46
2022/03/25 02:53:29;;;;;;;;;;;;;;;22.23;24.11;96424.47;10425058;28;1922;-46
2022/03/25 02:58:30;;;;;;;;;;;;;;;22.22;24.00;96419.41;10437765;28;1887;-46
2022/03/25 03:03:32;;;;;;;;;;;;;;;22.23;24.15;96413.91;10432182;28;1816;-48
2022/03/25 03:08:32;;;;;;;;;;;;;;;22.20;24.29;96419.69;10422321;28;1866;-48
2022/03/25 03:13:32;;;;;;;;;;;;;;;22.22;23.99;96424.69;10431142;28;1914;-48
2022/03/25 03:18:33;;;;;;;;;;;;;;;22.20;24.12;96426.81;10423502;28;2052;-42
2022/03/25 03:23:33;;;;;;;;;;;;;;;22.20;24.13;96417.06;10429530;28;1812;-43
2022/03/25 03:28:34;;;;;;;;;;;;;;;22.20;24.12;96422.34;10407881;28;1825;-41
2022/03/25 03:33:34;;;;;;;;;;;;;;;22.19;23.99;96431.34;10434487;28;1922;-42
2022/03/25 03:38:35;;;;;;;;;;;;;;;22.19;23.97;96420.78;10415725;28;1769;-44
2022/03/25 03:43:36;;;;;;;;;;;;;;;22.20;23.82;96424.97;10414141;28;1869;-46
2022/03/25 03:48:37;;;;;;;;;;;;;;;22.18;23.89;96423.66;10406563;28;1925;-45
2022/03/25 03:53:37;;;;;;;;;;;;;;;22.19;23.92;96418.13;10429564;28;1993;-47
2022/03/25 03:58:39;;;;;;;;;;;;;;;22.21;23.93;96421.28;10418293;28;1853;-45
2022/03/25 04:03:39;;;;;;;;;;;;;;;22.19;24.07;96419.97;10408692;28;1860;-44
2022/03/25 04:08:40;;;;;;;;;;;;;;;22.21;24.03;96412.56;10424692;28;1899;-43
2022/03/25 04:13:40;;;;;;;;;;;;;;;22.19;23.96;96415.50;10434667;28;1975;-43
2022/03/25 04:18:40;;;;;;;;;;;;;;;22.19;23.97;96412.06;10424793;28;1695;-42
2022/03/25 04:23:41;;;;;;;;;;;;;;;22.19;23.75;96415.50;10436742;28;1844;-45
2022/03/25 04:28:41;;;;;;;;;;;;;;;22.20;23.86;96414.41;10433646;28;1785;-49
2022/03/25 04:33:41;;;;;;;;;;;;;;;22.22;23.71;96411.50;10412626;28;2005;-44
2022/03/25 04:38:42;;;;;;;;;;;;;;;22.20;23.81;96414.41;10429135;28;1874;-42
2022/03/25 04:43:42;;;;;;;;;;;;;;;22.22;23.78;96414.13;10411472;28;2068;-42
2022/03/25 04:48:42;;;;;;;;;;;;;;;22.20;23.72;96410.97;10435453;28;1886;-42
2022/03/25 04:53:43;;;;;;;;;;;;;;;22.19;23.65;96415.50;10414725;28;1902;-43
2022/03/25 04:58:43;;;;;;;;;;;;;;;22.18;23.58;96419.19;10438412;28;1845;-43
2022/03/25 05:03:43;;;;;;;;;;;;;;;22.17;23.75;96427.38;10418750;28;1910;-40
2022/03/25 05:08:44;;;;;;;;;;;;;;;22.18;23.76;96423.66;10415960;28;1851;-42
2022/03/25 05:13:44;;;;;;;;;;;;;;;22.18;23.66;96424.47;10438395;28;1911;-43
2022/03/25 05:18:45;;;;;;;;;;;;;;;22.18;23.82;96428.94;10414530;28;1772;-46
2022/03/25 05:23:45;;;;;;;;;;;;;;;22.19;23.86;96431.34;10416876;28;1872;-40
2022/03/25 05:28:46;;;;;;;;;;;;;;;22.18;23.74;96428.94;10431002;28;1970;-46
2022/03/25 05:33:46;;;;;;;;;;;;;;;22.20;23.95;96435.53;10410841;28;1950;-43
2022/03/25 05:38:47;;;;;;;;;;;;;;;22.20;23.61;96432.09;10426856;28;2000;-41
2022/03/25 05:43:47;;;;;;;;;;;;;;;22.20;23.69;96442.66;10411117;28;1864;-43
2022/03/25 05:48:48;;;;;;;;;;;;;;;22.22;23.75;96444.00;10417029;28;1835;-41
2022/03/25 05:53:48;;;;;;;;;;;;;;;22.20;23.65;96453.22;10434450;28;1910;-47
2022/03/25 05:58:48;;;;;;;;;;;;;;;22.20;23.61;96456.66;10419086;28;2058;-47
2022/03/25 06:03:49;;;;;;;;;;;;;;;22.23;23.43;96453.50;10412999;28;2071;-47
2022/03/25 06:08:49;;;;;;;;;;;;;;;22.18;23.59;96453.50;10419742;28;2036;-45
2022/03/25 06:13:49;;;;;;;;;;;;;;;22.19;23.65;96452.47;10419726;28;1985;-42
2022/03/25 06:18:49;;;;;;;;;;;;;;;22.18;23.47;96457.97;10431055;28;1813;-44
2022/03/25 06:23:50;;;;;;;;;;;;;;;22.19;23.71;96457.75;10431804;28;1928;-43
2022/03/25 06:28:51;;;;;;;;;;;;;;;22.20;23.55;96456.66;10426326;28;1804;-44
2022/03/25 06:33:51;;;;;;;;;;;;;;;22.17;23.32;96467.78;10427365;28;1969;-41
2022/03/25 06:38:52;;;;;;;;;;;;;;;22.21;23.39;96466.19;10437498;28;1850;-42
2022/03/25 06:43:53;;;;;;;;;;;;;;;22.20;23.65;96466.44;10434853;28;1753;-42
2022/03/25 06:48:53;;;;;;;;;;;;;;;22.19;23.50;96470.16;10428220;28;2086;-47
2022/03/25 06:53:54;;;;;;;;;;;;;;;22.19;23.55;96470.94;10423901;28;1906;-44
2022/03/25 06:58:55;;;;;;;;;;;;;;;22.20;23.32;96464.59;10431723;28;1816;-44
2022/03/25 07:03:56;;;;;;;;;;;;;;;22.22;23.68;96480.97;10417918;28;2030;-43
2022/03/25 07:08:57;;;;;;;;;;;;;;;22.21;23.41;96484.69;10429091;28;1810;-41
2022/03/25 07:13:58;;;;;;;;;;;;;;;22.21;23.59;96491.78;10422895;28;1969;-46
2022/03/25 07:19:01;;;;;;;;;;;;;;;22.21;23.76;96492.59;10410311;28;1770;-41
2022/03/25 07:24:01;;;;;;;;;;;;;;;22.21;23.45;96497.88;10431483;28;1865;-41
2022/03/25 07:29:02;;;;;;;;;;;;;;;22.20;23.60;96501.56;10424381;28;1766;-42
2022/03/25 07:34:02;;;;;;;;;;;;;;;22.20;23.60;96496.28;10427246;28;1905;-47
2022/03/25 07:39:03;;;;;;;;;;;;;;;22.22;23.41;96498.66;10427997;28;1821;-44
2022/03/25 07:44:04;;;;;;;;;;;;;;;22.17;23.60;96496.81;10423518;28;1830;-39
2022/03/25 07:49:06;;;;;;;;;;;;;;;22.21;23.60;96497.88;10415445;28;1846;-43
2022/03/25 07:54:06;;;;;;;;;;;;;;;22.22;23.54;96504.72;10403630;28;1910;-40
2022/03/25 07:59:08;;;;;;;;;;;;;;;22.27;23.48;96496.00;10410832;28;1791;-41
2022/03/25 08:04:09;;;;;;;;;;;;;;;22.22;23.73;96499.44;10400000;28;1858;-40
2022/03/25 08:09:10;;;;;;;;;;;;;;;22.19;23.92;96505.28;10413375;28;1835;-43
2022/03/25 08:14:12;;;;;;;;;;;;;;;22.21;23.94;96505.00;10430409;28;1906;-41
2022/03/25 08:19:12;;;;;;;;;;;;;;;22.19;24.27;96521.13;10415203;28;1904;-41
2022/03/25 08:29:32;;;;;;;;;;;;;;;21.44;22.50;96518.34;10420133;28;1685;-44
2022/03/25 08:34:32;;;;;;;;;;;;;;;21.21;22.66;96516.97;10432755;28;1958;-46
2022/03/25 08:39:32;;;;;;;;;;;;;;;21.20;22.58;96506.69;10423464;28;1858;-45
2022/03/25 08:44:33;;;;;;;;;;;;;;;21.21;22.47;96516.16;10427388;28;1854;-45
2022/03/25 08:49:34;;;;;;;;;;;;;;;21.04;22.31;96524.31;10426786;28;1846;-43
2022/03/25 08:54:34;;;;;;;;;;;;;;;20.97;22.11;96524.50;10409116;28;1910;-46
2022/03/25 08:59:35;;;;;;;;;;;;;;;21.00;22.18;96518.72;10415197;28;1836;-44
2022/03/25 09:04:35;;;;;;;;;;;;;;;21.06;22.34;96516.94;10422731;28;1808;-40
2022/03/25 09:09:37;;;;;;;;;;;;;;;21.10;22.16;96514.56;10431520;28;1886;-41
2022/03/25 09:14:37;;;;;;;;;;;;;;;21.02;22.21;96519.28;10414359;28;1969;-41
2022/03/25 09:19:37;;;;;;;;;;;;;;;20.94;21.84;96518.94;10417698;28;1825;-42
2022/03/25 09:24:38;;;;;;;;;;;;;;;21.06;22.64;96522.97;10423285;28;1764;-40
2022/03/25 09:29:38;;;;;;;;;;;;;;;21.22;22.77;96517.78;10440341;28;2219;-40
2022/03/25 09:39:58;;;;;;;;;;;;;;;21.21;22.23;96514.34;10418513;28;1853;-41
2022/03/25 09:45:00;;;;;;;;;;;;;;;21.34;22.78;96518.34;10417188;28;1828;-43
2022/03/25 09:50:00;;;;;;;;;;;;;;;21.46;22.66;96518.88;10411102;28;1764;-39
2022/03/25 09:55:01;;;;;;;;;;;;;;;21.43;22.39;96522.84;10437075;28;1914;-42
2022/03/25 10:00:02;;;;;;;;;;;;;;;21.56;22.76;96518.91;10434078;28;2119;-44
2022/03/25 10:05:12;;;;;;;;;;;;;;;21.66;22.77;96511.00;10435301;28;1859;-41
2022/03/25 10:10:14;;;;;;;;;;;;;;;21.75;22.52;96509.44;10432330;28;1834;-45
2022/03/25 10:15:21;;;;;;;;;;;;;;;21.79;22.53;96515.78;10425844;28;1910;-48
2022/03/25 10:20:31;;;;;;;;;;;;;;;21.84;22.89;96506.03;10435834;28;1855;-43
2022/03/25 10:25:53;;;;;;;;;;;;;;;21.87;22.71;96507.38;10432343;28;1799;-42
2022/03/25 10:30:54;;;;;;;;;;;;;;;21.83;22.58;96504.47;10436315;28;1910;-44
2022/03/25 10:35:56;;;;;;;;;;;;;;;21.84;22.68;96495.50;10430774;28;1890;-47
2022/03/25 10:40:57;;;;;;;;;;;;;;;21.88;22.75;96495.78;10433284;28;1854;-46
2022/03/25 10:45:58;;;;;;;;;;;;;;;21.95;23.14;96498.94;10420355;28;1562;-43
2022/03/25 10:51:01;;;;;;;;;;;;;;;22.00;23.22;96506.84;10427849;28;1906;-45
2022/03/25 10:56:01;;;;;;;;;;;;;;;22.08;22.39;96501.03;10431155;28;1838;-41
2022/03/25 11:01:02;;;;;;;;;;;;;;;22.05;22.60;96504.19;10436846;28;1957;-40
2022/03/25 11:06:02;;;;;;;;;;;;;;;22.09;22.69;96497.34;10430985;28;1775;-45
2022/03/25 11:11:03;;;;;;;;;;;;;;;22.07;22.48;96483.59;10422083;28;1910;-47
2022/03/25 11:16:05;;;;;;;;;;;;;;;22.17;22.60;96488.91;10397170;28;1884;-43
2022/03/25 11:21:06;;;;;;;;;;;;;;;22.11;22.48;96476.78;10426683;28;1825;-44
2022/03/25 11:26:08;;;;;;;;;;;;;;;22.16;22.50;96479.38;10417104;28;1785;-41
2022/03/25 11:31:08;;;;;;;;;;;;;;;22.19;22.54;96481.50;10423857;28;1910;-43
2022/03/25 11:36:15;;;;;;;;;;;;;;;22.10;22.42;96469.88;10417046;28;1758;-42
2022/03/25 11:41:20;;;;;;;;;;;;;;;22.24;22.58;96457.72;10423034;28;1854;-40
2022/03/25 11:46:20;;;;;;;;;;;;;;;22.23;22.65;96458.00;10406070;28;1862;-41
2022/03/25 11:51:24;;;;;;;;;;;;;;;22.21;22.59;96450.34;10434182;28;1907;-44
2022/03/25 11:56:25;;;;;;;;;;;;;;;22.22;22.74;96451.91;10420517;28;2199;-43
2022/03/25 12:01:26;;;;;;;;;;;;;;;22.19;22.34;96441.09;10413788;28;1763;-43
2022/03/25 12:06:27;;;;;;;;;;;;;;;22.23;22.44;96440.31;10421499;28;1800;-41
2022/03/25 12:11:47;;;;;;;;;;;;;;;22.24;22.37;96439.22;10413761;28;1906;-45
2022/03/25 12:16:47;;;;;;;;;;;;;;;22.10;22.20;96438.19;10422155;28;1711;-47
2022/03/25 12:21:47;;;;;;;;;;;;;;;22.25;22.57;96430.25;10413000;28;1823;-45
2022/03/25 12:27:00;;;;;;;;;;;;;;;22.18;22.55;96427.09;10429796;28;1837;-45
2022/03/25 12:32:00;;;;;;;;;;;;;;;22.17;22.45;96428.16;10435529;28;1914;-40
2022/03/25 12:37:02;;;;;;;;;;;;;;;22.19;22.39;96422.63;10428515;28;1850;-50
2022/03/25 12:42:09;;;;;;;;;;;;;;;22.20;22.38;96413.63;10428002;28;1860;-44
2022/03/25 12:47:15;;;;;;;;;;;;;;;22.21;22.69;96405.44;10430210;28;1997;-42
2022/03/25 12:52:16;;;;;;;;;;;;;;;22.22;21.75;96409.66;10424488;28;1973;-40
2022/03/25 12:57:16;;;;;;;;;;;;;;;22.25;22.25;96411.78;10416728;28;1867;-42
2022/03/25 13:02:19;;;;;;;;;;;;;;;22.34;22.21;96402.22;10410327;28;1960;-42
2022/03/25 13:07:21;;;;;;;;;;;;;;;22.29;22.34;96396.97;10421386;28;2120;-41
2022/03/25 13:12:32;;;;;;;;;;;;;;;22.25;22.61;96387.22;10413845;28;1968;-40
2022/03/25 13:17:36;;;;;;;;;;;;;;;22.21;22.62;96394.09;10435296;28;1873;-42
2022/03/25 13:22:40;;;;;;;;;;;;;;;22.19;22.57;96386.44;10426578;28;1836;-42
2022/03/25 13:27:40;;;;;;;;;;;;;;;22.26;22.20;96386.94;10417125;28;1782;-45
2022/03/25 13:32:40;;;;;;;;;;;;;;;22.22;22.07;96385.88;10425174;28;1918;-42
2022/03/25 13:37:43;;;;;;;;;;;;;;;22.22;21.74;96385.09;10438922;28;1812;-44
2022/03/25 13:42:45;;;;;;;;;;;;;;;22.23;22.01;96384.84;10436561;28;1858;-43
2022/03/25 13:48:16;;;;;;;;;;;;;;;22.26;22.16;96376.38;10399573;28;1812;-45
2022/03/25 13:53:29;;;;;;;;;;;;;;;22.24;22.43;96365.28;10412962;28;2143;-42
2022/03/25 13:58:31;;;;;;;;;;;;;;;22.14;22.70;96365.31;10437099;28;1991;-44
2022/03/25 14:03:32;;;;;;;;;;;;;;;22.18;21.50;96353.16;10436100;28;1983;-42
2022/03/25 14:08:33;;;;;;;;;;;;;;;22.21;22.16;96357.13;10413620;28;2384;-43
2022/03/25 14:13:33;;;;;;;;;;;;;;;22.25;22.09;96353.69;10426436;28;2247;-45
2022/03/25 14:18:34;;;;;;;;;;;;;;;22.21;22.65;96355.28;10420579;28;2291;-46
2022/03/25 14:23:34;;;;;;;;;;;;;;;22.13;22.63;96353.19;10437102;28;1567;-44
2022/03/25 14:28:35;;;;;;;;;;;;;;;22.23;21.85;96355.00;10437740;28;1876;-48
2022/03/25 14:33:37;;;;;;;;;;;;;;;22.14;22.05;96356.59;10415143;28;2133;-43
2022/03/25 14:38:37;;;;;;;;;;;;;;;22.14;21.91;96344.19;10437201;28;2019;-46
2022/03/25 14:43:39;;;;;;;;;;;;;;;22.18;22.04;96339.97;10413490;28;1849;-41
2022/03/25 14:48:39;;;;;;;;;;;;;;;22.25;22.99;96347.59;10420031;28;1933;-41
2022/03/25 14:53:39;;;;;;;;;;;;;;;22.25;24.33;96339.69;10418196;28;2184;-42
2022/03/25 14:58:40;;;;;;;;;;;;;;;22.26;24.28;96342.03;10437033;28;2140;-43
2022/03/25 15:03:40;;;;;;;;;;;;;;;22.34;25.07;96338.84;10431770;28;2065;-44
2022/03/25 15:08:41;;;;;;;;;;;;;;;22.35;24.97;96334.34;10438774;28;1841;-45
2022/03/25 15:13:41;;;;;;;;;;;;;;;22.32;24.94;96335.66;10424287;28;1910;-42
2022/03/25 15:18:42;;;;;;;;;;;;;;;22.33;24.47;96333.81;10437899;28;2040;-43
2022/03/25 15:23:42;;;;;;;;;;;;;;;22.32;24.34;96327.75;10431791;28;2115;-42
2022/03/25 15:28:43;;;;;;;;;;;;;;;22.27;24.28;96333.06;10434184;28;1835;-42
2022/03/25 15:39:03;;;;;;;;;;;;;;;22.27;24.63;96332.28;10422412;28;1878;-41
2022/03/25 15:44:03;;;;;;;;;;;;;;;22.22;25.36;96330.44;10425957;28;1838;-43
2022/03/25 15:49:03;;;;;;;;;;;;;;;22.21;24.58;96328.88;10428564;28;1794;-41
2022/03/25 15:54:04;;;;;;;;;;;;;;;22.21;25.09;96323.59;10413770;28;1880;-45
2022/03/25 15:59:05;;;;;;;;;;;;;;;22.20;25.21;96324.63;10429263;28;1922;-41
2022/03/25 16:04:06;;;;;;;;;;;;;;;22.15;25.52;96326.50;10421928;28;1812;-44
2022/03/25 16:09:06;;;;;;;;;;;;;;;22.09;24.66;96323.06;10413978;28;1860;-43
2022/03/25 16:14:06;;;;;;;;;;;;;;;22.08;24.38;96329.44;10427508;28;1989;-44
2022/03/25 16:19:07;;;;;;;;;;;;;;;22.11;25.32;96336.81;10414254;28;1901;-41
2022/03/25 16:24:07;;;;;;;;;;;;;;;22.04;25.27;96323.09;10414042;28;1937;-41
2022/03/25 16:29:08;;;;;;;;;;;;;;;22.16;25.39;96325.44;10416846;28;1553;-41
2022/03/25 16:34:09;;;;;;;;;;;;;;;22.07;25.43;96327.84;10412024;28;1914;-44
2022/03/25 16:39:10;;;;;;;;;;;;;;;22.07;25.58;96327.06;10431669;28;1476;-43
2022/03/25 16:44:10;;;;;;;;;;;;;;;22.11;25.61;96328.91;10428472;28;1590;-42
2022/03/25 16:49:10;;;;;;;;;;;;;;;22.10;25.49;96335.22;10427638;28;1822;-43
2022/03/25 16:54:11;;;;;;;;;;;;;;;22.11;25.47;96336.81;10432354;28;1906;-43
2022/03/25 16:59:11;;;;;;;;;;;;;;;22.09;25.47;96336.28;10439986;28;1413;-46
2022/03/25 17:04:12;;;;;;;;;;;;;;;22.11;25.85;96336.81;10427795;28;1539;-42
2022/03/25 17:09:12;;;;;;;;;;;;;;;22.14;25.75;96354.75;10434301;28;1470;-42
2022/03/25 17:14:13;;;;;;;;;;;;;;;22.14;25.80;96344.19;10434351;28;1972;-41
2022/03/25 17:19:13;;;;;;;;;;;;;;;22.16;25.74;96343.91;10443197;28;1571;-45
2022/03/25 17:24:15;;;;;;;;;;;;;;;22.17;25.85;96354.22;10425830;28;1415;-43
2022/03/25 17:29:15;;;;;;;;;;;;;;;22.20;25.92;96358.97;10421843;28;1616;-51
2022/03/25 17:34:16;;;;;;;;;;;;;;;22.22;25.67;96361.31;10449293;28;1910;-40
2022/03/25 17:39:17;;;;;;;;;;;;;;;22.20;25.72;96356.31;10418780;28;1498;-43
2022/03/25 17:44:18;;;;;;;;;;;;;;;22.20;25.79;96369.53;10433855;28;1544;-45
2022/03/25 17:49:18;;;;;;;;;;;;;;;22.22;26.04;96382.44;10419853;28;1635;-42
2022/03/25 17:54:19;;;;;;;;;;;;;;;22.16;25.88;96389.59;10424085;28;1976;-40
2022/03/25 17:59:19;;;;;;;;;;;;;;;22.14;25.81;96385.66;10417926;28;1459;-44
2022/03/25 18:04:20;;;;;;;;;;;;;;;22.14;25.96;96390.94;10418018;28;2119;-40
2022/03/25 18:09:20;;;;;;;;;;;;;;;22.24;25.52;96396.97;10438685;28;1454;-40
2022/03/25 18:14:20;;;;;;;;;;;;;;;22.19;26.06;96399.66;10436165;28;1913;-45
2022/03/25 18:19:22;;;;;;;;;;;;;;;22.23;26.11;96408.63;10426847;28;1448;-44
2022/03/25 18:24:23;;;;;;;;;;;;;;;22.25;25.99;96403.84;10439425;28;1516;-46
2022/03/25 18:29:23;;;;;;;;;;;;;;;22.29;26.23;96417.31;10429373;28;1549;-45
2022/03/25 18:34:24;;;;;;;;;;;;;;;22.30;26.02;96417.03;10439896;28;1917;-43
2022/03/25 18:39:24;;;;;;;;;;;;;;;22.33;25.89;96421.78;10527031;22;3580;-60
2022/03/25 18:44:24;;;;;;;;;;;;;;;22.33;25.93;96427.06;10508301;28;1492;-60
2022/03/25 18:49:27;;;;;;;;;;;;;;;22.35;26.04;96427.59;10508599;28;1639;-62
2022/03/25 18:54:30;;;;;;;;;;;;;;;22.34;26.34;96436.56;10508630;28;1969;-60
2022/03/25 18:59:32;;;;;;;;;;;;;;;22.34;26.39;96436.56;10521179;28;1475;-59
2022/03/25 19:04:32;;;;;;;;;;;;;;;22.31;25.95;96437.13;10525786;28;1403;-61
2022/03/25 19:09:32;;;;;;;;;;;;;;;22.32;25.98;96441.31;10520463;28;1450;-61
2022/03/25 19:14:33;;;;;;;;;;;;;;;22.32;26.40;96435.25;10511350;28;1909;-61
2022/03/25 19:19:33;;;;;;;;;;;;;;;22.31;26.21;96438.97;10523871;28;1424;-60
2022/03/25 19:24:34;;;;;;;;;;;;;;;22.33;26.03;96444.75;10519447;28;1538;-58
2022/03/25 19:29:34;;;;;;;;;;;;;;;22.35;25.94;96453.22;10501758;28;1620;-61
2022/03/25 19:34:34;;;;;;;;;;;;;;;22.33;26.04;96452.69;10505223;28;1963;-60
2022/03/25 19:39:35;;;;;;;;;;;;;;;22.35;25.99;96459.28;10504186;28;1831;-58
2022/03/25 19:44:36;;;;;;;;;;;;;;;22.35;25.87;96467.22;10523320;28;1336;-60
2022/03/25 19:49:36;;;;;;;;;;;;;;;22.38;25.71;96473.81;10499071;28;1830;-60
2022/03/25 19:54:37;;;;;;;;;;;;;;;22.38;26.39;96474.59;10503535;28;2122;-60
2022/03/25 19:59:37;;;;;;;;;;;;;;;22.41;26.07;96471.44;10520094;28;1460;-59
2022/03/25 20:04:37;;;;;;;;;;;;;;;22.41;26.13;96470.63;10523536;28;1405;-58
2022/03/25 20:09:38;;;;;;;;;;;;;;;22.43;26.26;96474.59;10494543;28;2287;-62
2022/03/25 20:14:39;;;;;;;;;;;;;;;22.41;26.11;96476.72;10502249;28;1918;-59
2022/03/25 20:19:39;;;;;;;;;;;;;;;22.36;26.41;96474.06;10521243;28;1519;-59
2022/03/25 20:24:39;;;;;;;;;;;;;;;22.40;26.47;96480.41;10506525;28;1620;-58
2022/03/25 20:29:40;;;;;;;;;;;;;;;22.39;26.77;96481.47;10507577;28;1516;-60
2022/03/25 20:34:40;;;;;;;;;;;;;;;22.39;26.71;96484.13;10528498;28;1918;-59
2022/03/25 20:39:40;;;;;;;;;;;;;;;22.39;26.30;96489.41;10527236;28;1650;-60
2022/03/25 20:44:41;;;;;;;;;;;;;;;22.39;26.58;96491.25;10529869;28;1523;-59
2022/03/25 20:49:42;;;;;;;;;;;;;;;22.41;26.26;96497.84;10523505;28;1830;-57
2022/03/25 20:54:42;;;;;;;;;;;;;;;22.44;26.26;96484.09;10510701;28;1909;-59
2022/03/25 20:59:43;;;;;;;;;;;;;;;22.41;26.25;96494.41;10523362;28;1553;-60
2022/03/25 21:04:43;;;;;;;;;;;;;;;22.41;26.41;96499.69;10525270;28;1442;-60
2022/03/25 21:09:43;;;;;;;;;;;;;;;22.43;26.43;96500.22;10508364;28;1519;-55
2022/03/25 21:14:44;;;;;;;;;;;;;;;22.40;26.42;96506.03;10507940;28;2016;-60
2022/03/25 21:19:48;;;;;;;;;;;;;;;22.38;26.36;96503.66;10522894;28;1584;-58
2022/03/25 21:24:48;;;;;;;;;;;;;;;22.34;26.16;96504.47;10490944;28;1618;-56
2022/03/25 21:29:49;;;;;;;;;;;;;;;22.33;26.20;96500.22;10524207;28;1773;-60
2022/03/25 21:34:49;;;;;;;;;;;;;;;22.39;26.40;96504.44;10508419;28;2009;-60
2022/03/25 21:39:49;;;;;;;;;;;;;;;22.35;26.25;96504.19;10504934;28;1472;-60
2022/03/25 21:44:51;;;;;;;;;;;;;;;22.33;26.15;96511.59;10525209;28;1564;-61
2022/03/25 21:49:52;;;;;;;;;;;;;;;22.35;25.60;96512.13;10519729;28;1599;-59
2022/03/25 21:54:53;;;;;;;;;;;;;;;22.34;26.08;96521.09;10526365;28;1905;-60
2022/03/25 21:59:53;;;;;;;;;;;;;;;22.38;25.78;96521.38;10524943;28;1539;-59
2022/03/25 22:04:54;;;;;;;;;;;;;;;22.37;25.90;96523.22;10507780;28;1470;-58
2022/03/25 22:09:54;;;;;;;;;;;;;;;22.40;25.96;96522.66;10505038;28;1851;-59
2022/03/25 22:14:55;;;;;;;;;;;;;;;22.42;26.07;96519.78;10530454;28;1977;-58
2022/03/25 22:19:55;;;;;;;;;;;;;;;22.41;26.14;96520.81;10508730;28;2257;-59
2022/03/25 22:24:55;;;;;;;;;;;;;;;22.42;25.68;96530.34;10507333;28;1879;-58
2022/03/25 22:29:56;;;;;;;;;;;;;;;22.41;25.80;96532.19;10504654;28;1823;-57
2022/03/25 22:34:56;;;;;;;;;;;;;;;22.40;25.67;96521.91;10488962;28;1984;-58
2022/03/25 22:39:57;;;;;;;;;;;;;;;22.39;25.63;96520.28;10501465;28;1847;-58
2022/03/25 22:44:57;;;;;;;;;;;;;;;22.36;25.67;96513.69;10505399;28;1876;-60
2022/03/25 22:49:58;;;;;;;;;;;;;;;22.33;25.52;96511.59;10521636;28;2181;-60
2022/03/25 22:54:58;;;;;;;;;;;;;;;22.34;25.59;96518.44;10505672;28;1906;-58
2022/03/25 23:00:03;;;;;;;;;;;;;;;22.32;25.55;96514.47;10520157;28;1829;-59
2022/03/25 23:05:04;;;;;;;;;;;;;;;22.32;25.61;96525.84;10505725;28;2175;-57
2022/03/25 23:10:04;;;;;;;;;;;;;;;22.33;25.66;96524.81;10503512;28;1838;-59
2022/03/25 23:15:05;;;;;;;;;;;;;;;22.31;25.48;96524.28;10504391;28;1973;-58
2022/03/25 23:20:06;;;;;;;;;;;;;;;22.29;25.48;96521.09;10506476;28;1848;-59
2022/03/25 23:25:06;;;;;;;;;;;;;;;22.29;25.23;96520.31;10522730;28;1729;-60
2022/03/25 23:30:07;;;;;;;;;;;;;;;22.30;25.32;96524.53;10504488;28;1912;-58
2022/03/25 23:35:08;;;;;;;;;;;;;;;22.26;25.34;96526.91;10505363;28;1980;-60
2022/03/25 23:40:08;;;;;;;;;;;;;;;22.23;25.23;96531.94;10502816;28;1859;-58
2022/03/25 23:45:09;;;;;;;;;;;;;;;22.21;25.49;96529.56;10505424;28;1809;-59
2022/03/25 23:50:09;;;;;;;;;;;;;;;22.19;25.37;96539.59;10496345;28;1768;-60
2022/03/25 23:55:10;;;;;;;;;;;;;;;22.22;25.33;96539.06;10502432;28;1961;-58
